Time;durP1;ratioP1;P1;durP2;ratioP2;P2;SDS_P1;SDS_P2;PMS_P1;PMS_P2;Temp;Humidity;BMP_temperature;BMP_pressure;BME280_temperature;BME280_humidity;BME280_pressure;Samples;Min_cycle;Max_cycle;Signal;HPM_P1;HPM_P2
2022/04/06 00:00:44;;;;;;;12.00;4.60;;;;;;;7.08;85.30;98945.88;106156;1270;22689;-65
2022/04/06 00:03:16;;;;;;;9.50;4.00;;;;;;;7.09;85.26;98950.83;106038;1270;22519;-64
2022/04/06 00:05:47;;;;;;;11.10;4.80;;;;;;;7.10;85.38;98949.73;106024;1270;25422;-64
2022/04/06 00:08:19;;;;;;;9.50;4.40;;;;;;;7.11;85.46;98949.17;105821;1270;22549;-65
2022/04/06 00:10:51;;;;;;;10.20;4.50;;;;;;;7.12;85.37;98944.90;105912;1270;23191;-64
2022/04/06 00:13:22;;;;;;;13.50;5.30;;;;;;;7.14;85.46;98943.45;105758;1270;22532;-65
2022/04/06 00:15:53;;;;;;;11.20;5.00;;;;;;;7.15;85.55;98949.73;106016;1270;26291;-63
2022/04/06 00:18:25;;;;;;;10.30;4.30;;;;;;;7.17;85.42;98949.56;105916;1270;22998;-63
2022/04/06 00:20:56;;;;;;;10.30;4.60;;;;;;;7.18;85.62;98952.09;106007;1270;22550;-64
2022/04/06 00:23:28;;;;;;;11.90;4.70;;;;;;;7.19;85.54;98956.23;105996;1270;22572;-64
2022/04/06 00:26:00;;;;;;;11.70;4.60;;;;;;;7.19;85.65;98961.55;106027;1270;22607;-63
2022/04/06 00:28:31;;;;;;;10.20;4.50;;;;;;;7.19;85.83;98960.89;105938;1270;22534;-65
2022/04/06 00:31:03;;;;;;;9.00;3.60;;;;;;;7.20;86.03;98967.30;105976;1270;25557;-65
2022/04/06 00:33:35;;;;;;;10.30;4.10;;;;;;;7.18;86.04;98965.31;105860;1270;24261;-65
2022/04/06 00:36:07;;;;;;;10.80;4.40;;;;;;;7.19;86.00;98970.02;105909;1270;24799;-64
2022/04/06 00:38:39;;;;;;;10.00;4.30;;;;;;;7.20;86.11;98963.98;105977;1270;22545;-65
2022/04/06 00:41:10;;;;;;;8.90;3.90;;;;;;;7.21;86.12;98961.05;106093;1270;25254;-63
2022/04/06 00:43:42;;;;;;;10.30;3.70;;;;;;;7.21;86.16;98960.05;105826;1270;25319;-64
2022/04/06 00:46:14;;;;;;;12.80;4.10;;;;;;;7.23;86.16;98962.44;105935;1270;25320;-63
2022/04/06 00:48:46;;;;;;;10.80;4.50;;;;;;;7.25;86.23;98964.69;106056;1270;24244;-63
2022/04/06 00:51:19;;;;;;;12.20;4.80;;;;;;;7.26;86.18;98965.96;105878;1270;24225;-62
2022/04/06 00:53:50;;;;;;;10.30;4.70;;;;;;;7.28;86.33;98967.55;105829;1270;22760;-63
2022/04/06 00:56:22;;;;;;;9.40;3.50;;;;;;;7.31;86.31;98966.16;105856;1270;25237;-61
2022/04/06 00:58:53;;;;;;;13.80;5.20;;;;;;;7.32;86.29;98967.75;105923;1270;22550;-62
2022/04/06 01:01:25;;;;;;;13.10;4.90;;;;;;;7.35;86.28;98974.95;106010;1270;22541;-63
2022/04/06 01:03:56;;;;;;;12.00;5.20;;;;;;;7.39;86.30;98979.98;105944;1270;24234;-63
2022/04/06 01:06:28;;;;;;;11.80;5.10;;;;;;;7.42;86.45;98982.19;105887;1270;23191;-62
2022/04/06 01:09:00;;;;;;;15.30;6.40;;;;;;;7.45;86.38;98976.77;106029;1271;24260;-63
2022/04/06 01:11:32;;;;;;;15.20;6.50;;;;;;;7.48;86.48;98975.95;105880;1270;22516;-62
2022/04/06 01:14:04;;;;;;;14.90;6.50;;;;;;;7.51;86.21;98972.29;105959;1270;25420;-63
2022/04/06 01:16:35;;;;;;;15.60;7.40;;;;;;;7.51;86.26;98968.81;105949;1270;22565;-63
2022/04/06 01:19:06;;;;;;;14.80;6.90;;;;;;;7.53;86.11;98963.88;106077;1270;23097;-62
2022/04/06 01:21:38;;;;;;;16.80;7.30;;;;;;;7.55;86.15;98970.89;105938;1270;22561;-62
2022/04/06 01:24:09;;;;;;;15.00;7.80;;;;;;;7.57;86.13;98972.16;106261;1270;22529;-62
2022/04/06 01:26:42;;;;;;;13.60;6.40;;;;;;;7.58;85.93;98969.23;105991;1270;22553;-61
2022/04/06 01:29:14;;;;;;;15.30;7.70;;;;;;;7.59;86.06;98968.30;105976;1270;22538;-62
2022/04/06 01:31:45;;;;;;;16.90;7.90;;;;;;;7.60;86.04;98968.39;106005;1270;25702;-63
2022/04/06 01:34:16;;;;;;;15.10;7.80;;;;;;;7.61;86.02;98973.32;105989;1270;24261;-62
2022/04/06 01:36:48;;;;;;;14.40;7.10;;;;;;;7.63;85.95;98972.23;105989;1270;24269;-63
2022/04/06 01:39:19;;;;;;;16.70;8.30;;;;;;;7.64;85.98;98975.56;106040;1270;25329;-60
2022/04/06 01:41:51;;;;;;;14.50;7.60;;;;;;;7.66;86.00;98967.75;105888;1270;22636;-63
2022/04/06 01:44:22;;;;;;;17.00;7.80;;;;;;;7.67;85.92;98973.02;106099;1270;26525;-63
2022/04/06 01:46:54;;;;;;;16.60;7.70;;;;;;;7.68;85.92;98972.48;105968;1270;22518;-62
2022/04/06 01:52:15;;;;;;;16.60;8.20;;;;;;;7.70;85.83;98985.47;106117;1270;22528;-62
2022/04/06 01:54:49;;;;;;;16.40;8.30;;;;;;;7.71;85.82;98981.90;106046;1270;24762;-63
2022/04/06 01:57:21;;;;;;;16.00;8.00;;;;;;;7.72;85.84;98979.52;106125;1270;25318;-63
2022/04/06 01:59:54;;;;;;;15.30;7.80;;;;;;;7.73;85.80;98984.70;106103;1270;25248;-63
2022/04/06 02:02:27;;;;;;;15.50;7.60;;;;;;;7.73;85.76;98981.21;106151;1270;25425;-63
2022/04/06 02:05:00;;;;;;;16.40;7.60;;;;;;;7.74;85.71;98985.02;106768;1259;22545;-53
2022/04/06 02:07:31;;;;;;;17.50;8.70;;;;;;;7.76;85.77;98986.35;106168;1268;26257;-52
2022/04/06 02:10:02;;;;;;;14.40;7.30;;;;;;;7.77;85.86;98990.80;106146;1271;24374;-56
2022/04/06 02:12:34;;;;;;;17.80;7.60;;;;;;;7.79;86.05;98995.52;106277;1271;24709;-52
2022/04/06 02:15:08;;;;;;;17.60;9.30;;;;;;;7.80;86.12;98990.98;106460;1270;25387;-51
2022/04/06 02:17:42;;;;;;;17.10;8.10;;;;;;;7.82;86.08;98990.24;106251;1270;22526;-57
2022/04/06 02:20:14;;;;;;;14.60;6.70;;;;;;;7.82;86.22;98989.44;106132;1269;24195;-58
2022/04/06 02:22:46;;;;;;;15.00;7.50;;;;;;;7.82;86.28;98993.33;106121;1271;22537;-57
2022/04/06 02:25:18;;;;;;;16.30;7.80;;;;;;;7.81;86.32;98991.09;106178;1270;24344;-57
2022/04/06 02:27:54;;;;;;;15.80;7.50;;;;;;;7.81;86.42;98986.75;105966;1270;24247;-57
2022/04/06 02:30:25;;;;;;;16.30;7.60;;;;;;;7.80;86.50;98988.15;106543;1269;22532;-59
2022/04/06 02:32:57;;;;;;;16.30;8.10;;;;;;;7.80;86.43;98985.58;106152;1270;22553;-57
2022/04/06 02:35:28;;;;;;;15.60;7.80;;;;;;;7.80;86.58;98982.86;106115;1270;22659;-55
2022/04/06 02:38:00;;;;;;;17.50;8.70;;;;;;;7.79;86.59;98985.42;106341;1270;25130;-53
2022/04/06 02:40:33;;;;;;;16.40;8.10;;;;;;;7.79;86.50;98981.64;106440;1270;25550;-56
2022/04/06 02:43:04;;;;;;;21.80;7.30;;;;;;;7.79;86.49;98983.34;106060;1270;25306;-55
2022/04/06 02:45:36;;;;;;;16.00;7.50;;;;;;;7.80;86.41;98979.07;106136;1270;24054;-58
2022/04/06 02:48:08;;;;;;;12.70;6.50;;;;;;;7.80;86.39;98986.14;106018;1270;22555;-54
2022/04/06 02:50:39;;;;;;;15.80;7.30;;;;;;;7.79;86.27;98989.66;106232;1270;22551;-55
2022/04/06 02:53:11;;;;;;;17.70;7.90;;;;;;;7.79;86.26;98987.34;106323;1271;22691;-54
2022/04/06 02:55:43;;;;;;;14.50;6.10;;;;;;;7.80;86.26;98987.70;106324;1270;22544;-55
2022/04/06 02:58:14;;;;;;;13.20;6.00;;;;;;;7.79;86.29;98980.04;106195;1270;22530;-54
2022/04/06 03:00:46;;;;;;;13.00;6.20;;;;;;;7.80;86.24;98982.44;106148;1270;23228;-54
2022/04/06 03:03:17;;;;;;;11.50;5.00;;;;;;;7.80;86.20;98988.20;106117;1270;24307;-54
2022/04/06 03:05:48;;;;;;;11.10;5.00;;;;;;;7.81;86.20;98990.73;106286;1269;22519;-55
2022/04/06 03:08:20;;;;;;;10.70;4.80;;;;;;;7.82;86.29;98987.88;106418;1270;24724;-54
2022/04/06 03:10:51;;;;;;;10.10;4.60;;;;;;;7.83;86.19;98984.95;106223;1271;26333;-54
2022/04/06 03:13:22;;;;;;;12.50;3.80;;;;;;;7.85;86.28;98987.24;106303;1269;22561;-51
2022/04/06 03:15:54;;;;;;;8.60;2.90;;;;;;;7.86;86.17;98990.44;106153;1270;24299;-53
2022/04/06 03:18:26;;;;;;;10.50;4.00;;;;;;;7.86;86.30;98988.86;106006;1271;22642;-55
2022/04/06 03:20:58;;;;;;;14.50;5.00;;;;;;;7.87;86.05;98987.15;106199;1271;22762;-55
2022/04/06 03:23:29;;;;;;;11.40;5.10;;;;;;;7.88;86.22;98985.35;106163;1271;26603;-52
2022/04/06 03:26:01;;;;;;;8.90;3.60;;;;;;;7.88;86.19;98987.72;106224;1271;25325;-53
2022/04/06 03:28:33;;;;;;;9.30;3.70;;;;;;;7.88;86.22;98992.47;106265;1268;25412;-52
2022/04/06 03:31:04;;;;;;;9.80;3.40;;;;;;;7.89;86.25;98989.60;106245;1268;22561;-58
2022/04/06 03:33:36;;;;;;;10.60;4.00;;;;;;;7.89;86.45;98996.64;106161;1270;22517;-56
2022/04/06 03:36:10;;;;;;;9.10;3.70;;;;;;;7.89;86.53;98999.60;106135;1271;22540;-57
2022/04/06 03:38:41;;;;;;;9.50;3.80;;;;;;;7.87;86.62;99000.69;106067;1270;25503;-56
2022/04/06 03:41:12;;;;;;;10.60;4.60;;;;;;;7.85;86.67;99000.18;106212;1271;25467;-59
2022/04/06 03:43:44;;;;;;;10.00;4.30;;;;;;;7.84;86.78;99003.80;106165;1271;22516;-58
2022/04/06 03:46:16;;;;;;;11.30;4.60;;;;;;;7.82;86.91;99002.07;106067;1271;24393;-59
2022/04/06 03:48:48;;;;;;;10.40;3.80;;;;;;;7.81;86.95;99004.67;106167;1271;22739;-54
2022/04/06 03:51:19;;;;;;;13.10;4.40;;;;;;;7.79;86.98;99000.98;106079;1270;25268;-53
2022/04/06 03:53:50;;;;;;;11.90;5.00;;;;;;;7.78;87.09;99001.77;106137;1270;23201;-57
2022/04/06 03:56:23;;;;;;;12.40;5.20;;;;;;;7.78;87.01;99001.73;105989;1271;22541;-57
2022/04/06 03:58:54;;;;;;;10.40;4.90;;;;;;;7.78;87.06;98992.58;106054;1271;22723;-56
2022/04/06 04:01:25;;;;;;;11.40;5.30;;;;;;;7.78;86.98;98996.23;106113;1271;25330;-56
2022/04/06 04:03:57;;;;;;;11.80;5.00;;;;;;;7.78;87.11;99000.77;106138;1270;25430;-57
2022/04/06 04:06:30;;;;;;;12.30;5.40;;;;;;;7.77;87.04;98995.55;106421;1268;22538;-55
2022/04/06 04:09:01;;;;;;;17.20;7.60;;;;;;;7.78;87.00;98998.14;106079;1268;22708;-54
2022/04/06 04:11:33;;;;;;;13.50;6.30;;;;;;;7.78;87.15;98998.04;106063;1268;22522;-56
2022/04/06 04:14:05;;;;;;;13.90;7.20;;;;;;;7.79;87.15;98992.52;106228;1271;22519;-56
2022/04/06 04:16:37;;;;;;;14.80;6.80;;;;;;;7.79;87.20;99000.86;106174;1271;24313;-55
2022/04/06 04:19:09;;;;;;;15.50;7.80;;;;;;;7.77;87.38;98998.64;106261;1270;25976;-55
2022/04/06 04:21:40;;;;;;;15.70;8.30;;;;;;;7.78;87.41;98996.73;106077;1271;25311;-56
2022/04/06 04:24:12;;;;;;;17.20;9.00;;;;;;;7.78;87.30;98998.34;106034;1270;22526;-56
2022/04/06 04:26:43;;;;;;;17.90;8.70;;;;;;;7.78;87.45;98998.34;106024;1270;22544;-55
2022/04/06 04:29:15;;;;;;;16.80;8.50;;;;;;;7.79;87.45;98999.36;106032;1271;22537;-56
2022/04/06 04:31:47;;;;;;;17.30;9.30;;;;;;;7.78;87.52;98994.86;106033;1270;22543;-55
2022/04/06 04:34:19;;;;;;;19.00;10.00;;;;;;;7.79;87.53;98992.39;106053;1271;22528;-54
2022/04/06 04:36:51;;;;;;;18.90;9.40;;;;;;;7.80;87.50;98991.73;106086;1270;25239;-56
2022/04/06 04:39:22;;;;;;;21.20;11.20;;;;;;;7.80;87.53;98993.05;105987;1270;22665;-56
2022/04/06 04:41:54;;;;;;;20.80;9.30;;;;;;;7.81;87.53;99001.10;106231;1268;25271;-56
2022/04/06 04:44:26;;;;;;;19.60;10.70;;;;;;;7.82;87.59;99002.63;106099;1268;22531;-54
2022/04/06 04:46:57;;;;;;;22.40;9.90;;;;;;;7.83;87.58;99000.55;106049;1268;22522;-57
2022/04/06 04:49:29;;;;;;;22.40;11.40;;;;;;;7.84;87.67;99004.45;106074;1268;25207;-57
2022/04/06 04:52:00;;;;;;;21.20;11.30;;;;;;;7.85;87.66;99001.59;106142;1271;22541;-59
2022/04/06 04:54:32;;;;;;;21.20;9.90;;;;;;;7.85;87.75;98999.02;106168;1270;24285;-56
2022/04/06 04:57:04;;;;;;;21.80;11.10;;;;;;;7.85;87.85;98997.91;106101;1270;25860;-55
2022/04/06 04:59:35;;;;;;;19.90;11.10;;;;;;;7.86;87.73;99000.34;106027;1268;23812;-55
2022/04/06 05:02:08;;;;;;;18.90;10.60;;;;;;;7.87;87.90;99001.95;106167;1268;25219;-58
2022/04/06 05:04:39;;;;;;;20.00;10.70;;;;;;;7.87;87.77;99007.23;105982;1268;22535;-57
2022/04/06 05:07:11;;;;;;;19.20;10.30;;;;;;;7.89;87.84;99006.48;105783;1268;25281;-57
2022/04/06 05:09:47;;;;;;;19.60;10.00;;;;;;;7.91;87.91;99006.70;106065;1268;25473;-58
2022/04/06 05:12:19;;;;;;;19.10;9.80;;;;;;;7.92;87.93;99007.73;105934;1268;27536;-56
2022/04/06 05:14:51;;;;;;;24.00;9.90;;;;;;;7.93;87.94;99012.38;106003;1268;25234;-57
2022/04/06 05:17:22;;;;;;;20.50;10.70;;;;;;;7.94;87.98;99017.54;105955;1268;22582;-56
2022/04/06 05:19:54;;;;;;;20.30;10.10;;;;;;;7.96;87.87;99019.98;105996;1268;22526;-56
2022/04/06 05:22:26;;;;;;;18.90;9.20;;;;;;;7.98;87.94;99016.23;106144;1268;22756;-54
2022/04/06 05:24:59;;;;;;;18.60;9.10;;;;;;;8.00;88.02;99018.20;106059;1268;22547;-57
2022/04/06 05:27:31;;;;;;;18.40;9.60;;;;;;;8.01;87.99;99023.62;106018;1268;23923;-55
2022/04/06 05:30:04;;;;;;;19.10;9.60;;;;;;;8.02;87.98;99022.58;105910;1268;22613;-55
2022/04/06 05:32:37;;;;;;;19.10;10.30;;;;;;;8.04;87.99;99028.25;105973;1268;22611;-55
2022/04/06 05:35:11;;;;;;;17.10;8.90;;;;;;;8.06;87.98;99033.13;106002;1268;22552;-56
2022/04/06 05:37:43;;;;;;;17.40;9.00;;;;;;;8.07;88.04;99038.45;105904;1268;25222;-55
2022/04/06 05:40:17;;;;;;;16.40;8.30;;;;;;;8.09;88.04;99034.30;105992;1268;23756;-55
2022/04/06 05:42:49;;;;;;;16.30;9.00;;;;;;;8.10;88.08;99031.30;106034;1268;24474;-53
2022/04/06 05:45:20;;;;;;;18.40;9.10;;;;;;;8.12;88.05;99034.05;106390;1268;24221;-54
2022/04/06 05:47:52;;;;;;;18.80;9.00;;;;;;;8.14;88.09;99033.04;106053;1267;24271;-56
2022/04/06 05:50:23;;;;;;;18.80;9.50;;;;;;;8.16;88.14;99029.58;106372;1268;22567;-51
2022/04/06 05:52:57;;;;;;;16.00;7.80;;;;;;;8.18;87.93;99029.59;105815;1268;22540;-53
2022/04/06 05:55:29;;;;;;;17.50;9.10;;;;;;;8.23;88.01;99034.73;106001;1267;23206;-52
2022/04/06 05:58:00;;;;;;;17.30;8.00;;;;;;;8.25;88.03;99037.06;106051;1271;22528;-53
2022/04/06 06:00:32;;;;;;;15.60;7.70;;;;;;;8.27;88.05;99038.09;106114;1271;22532;-57
2022/04/06 06:03:04;;;;;;;14.00;6.90;;;;;;;8.29;88.23;99043.52;106144;1268;22543;-55
2022/04/06 06:05:36;;;;;;;15.80;7.70;;;;;;;8.31;88.21;99044.86;106349;1268;26682;-56
2022/04/06 06:08:08;;;;;;;15.40;7.10;;;;;;;8.34;88.26;99045.44;107379;1268;22566;-56
2022/04/06 06:10:40;;;;;;;14.70;6.80;;;;;;;8.37;88.19;99048.48;106303;1271;22567;-57
2022/04/06 06:13:11;;;;;;;15.80;6.70;;;;;;;8.41;88.30;99053.73;105944;1268;25227;-56
2022/04/06 06:15:43;;;;;;;14.90;5.80;;;;;;;8.44;88.26;99049.52;105996;1268;23664;-56
2022/04/06 06:18:14;;;;;;;13.00;6.20;;;;;;;8.47;88.26;99054.75;106321;1268;22522;-55
2022/04/06 06:20:46;;;;;;;14.60;6.10;;;;;;;8.49;88.39;99052.55;106408;1270;22585;-55
2022/04/06 06:23:17;;;;;;;12.30;5.30;;;;;;;8.53;88.35;99053.89;106170;1271;25490;-54
2022/04/06 06:25:49;;;;;;;13.30;5.30;;;;;;;8.56;88.47;99055.73;106306;1268;22697;-55
2022/04/06 06:28:20;;;;;;;13.50;5.60;;;;;;;8.60;88.48;99057.44;106552;1268;22541;-55
2022/04/06 06:30:52;;;;;;;14.70;5.70;;;;;;;8.63;88.54;99055.73;106166;1268;22564;-51
2022/04/06 06:33:24;;;;;;;12.00;4.90;;;;;;;8.66;88.44;99061.58;106186;1268;22547;-53
2022/04/06 06:35:55;;;;;;;8.60;3.40;;;;;;;8.67;88.53;99063.06;105922;1268;22542;-54
2022/04/06 06:38:27;;;;;;;9.50;3.00;;;;;;;8.69;88.27;99063.58;106106;1268;25307;-53
2022/04/06 06:40:59;;;;;;;10.00;3.00;;;;;;;8.72;88.20;99062.79;106264;1268;23623;-50
2022/04/06 06:43:31;;;;;;;8.60;2.30;;;;;;;8.75;88.21;99068.52;106169;1268;22544;-53
2022/04/06 06:46:03;;;;;;;9.60;2.80;;;;;;;8.78;88.11;99063.95;106240;1268;22754;-50
2022/04/06 06:48:35;;;;;;;11.40;2.60;;;;;;;8.83;88.17;99069.36;106363;1268;23221;-54
2022/04/06 06:51:06;;;;;;;8.20;2.40;;;;;;;8.87;87.91;99069.89;106056;1268;25504;-51
2022/04/06 06:53:37;;;;;;;9.30;2.10;;;;;;;8.91;87.91;99069.40;105959;1271;22646;-52
2022/04/06 06:56:10;;;;;;;7.50;1.70;;;;;;;8.95;87.86;99070.90;105967;1270;26676;-51
2022/04/06 06:58:42;;;;;;;6.30;1.80;;;;;;;9.00;87.59;99074.36;106161;1268;22537;-50
2022/04/06 07:01:13;;;;;;;9.40;2.10;;;;;;;9.03;87.60;99075.65;106098;1268;25233;-53
2022/04/06 07:03:45;;;;;;;7.90;2.40;;;;;;;9.08;87.53;99073.50;106140;1268;22544;-50
2022/04/06 07:06:17;;;;;;;5.60;1.90;;;;;;;9.12;87.62;99075.36;106236;1268;22558;-51
2022/04/06 07:08:48;;;;;;;7.40;2.00;;;;;;;9.17;87.54;99077.91;106005;1268;26526;-50
2022/04/06 07:11:20;;;;;;;5.50;1.70;;;;;;;9.21;87.50;99080.83;106183;1266;24358;-49
2022/04/06 07:13:51;;;;;;;6.20;1.60;;;;;;;9.24;87.44;99079.73;106215;1268;22711;-52
2022/04/06 07:16:23;;;;;;;8.90;2.30;;;;;;;9.27;87.17;99076.91;106040;1268;25508;-51
2022/04/06 07:18:55;;;;;;;7.20;2.20;;;;;;;9.30;87.09;99073.85;106385;1268;24252;-50
2022/04/06 07:21:26;;;;;;;8.70;2.40;;;;;;;9.33;87.04;99068.79;106519;1268;24180;-50
2022/04/06 07:23:58;;;;;;;7.70;2.30;;;;;;;9.36;86.78;99069.66;106012;1268;22542;-52
2022/04/06 07:26:30;;;;;;;7.80;2.20;;;;;;;9.38;86.64;99071.25;106071;1268;22704;-53
2022/04/06 07:29:02;;;;;;;7.80;2.10;;;;;;;9.39;86.62;99073.89;105849;1268;22553;-51
2022/04/06 07:31:33;;;;;;;9.70;2.60;;;;;;;9.41;86.67;99077.03;106094;1268;25213;-52
2022/04/06 07:34:04;;;;;;;9.60;2.60;;;;;;;9.43;86.75;99072.73;106123;1268;24180;-53
2022/04/06 07:36:37;;;;;;;10.70;3.10;;;;;;;9.46;86.69;99073.01;106218;1268;22534;-51
2022/04/06 07:39:08;;;;;;;8.80;2.50;;;;;;;9.50;86.76;99068.92;106087;1268;26500;-51
2022/04/06 07:41:39;;;;;;;9.10;2.40;;;;;;;9.55;86.86;99071.13;106159;1268;22640;-53
2022/04/06 07:44:11;;;;;;;7.20;1.80;;;;;;;9.62;86.83;99072.37;105997;1268;22937;-50
2022/04/06 07:46:42;;;;;;;8.50;2.80;;;;;;;9.67;86.60;99070.92;106158;1268;24212;-53
2022/04/06 07:49:14;;;;;;;9.30;2.60;;;;;;;9.71;86.63;99067.33;105986;1268;22562;-53
2022/04/06 07:51:46;;;;;;;7.40;2.90;;;;;;;9.75;86.68;99067.20;106108;1268;25340;-55
2022/04/06 07:54:18;;;;;;;14.30;2.60;;;;;;;9.81;86.75;99063.87;105998;1268;22557;-54
2022/04/06 07:56:49;;;;;;;9.80;3.00;;;;;;;9.87;86.73;99067.69;105894;1268;25392;-51
2022/04/06 07:59:21;;;;;;;7.80;3.10;;;;;;;9.92;86.67;99066.89;105955;1271;24007;-54
2022/04/06 08:01:52;;;;;;;8.80;2.90;;;;;;;9.95;86.58;99070.70;105993;1268;22529;-53
2022/04/06 08:04:24;;;;;;;9.70;3.10;;;;;;;9.98;86.42;99069.25;106019;1268;22549;-53
2022/04/06 08:06:56;;;;;;;9.10;2.80;;;;;;;10.01;86.39;99069.45;106117;1268;24264;-51
2022/04/06 08:09:27;;;;;;;9.50;3.20;;;;;;;10.03;86.03;99074.77;106812;1258;26676;-62
2022/04/06 08:11:59;;;;;;;12.30;3.70;;;;;;;10.05;86.06;99073.06;105880;1271;25554;-62
2022/04/06 08:14:30;;;;;;;9.60;2.70;;;;;;;10.08;85.98;99079.15;106127;1270;25332;-63
2022/04/06 08:17:04;;;;;;;10.10;2.80;;;;;;;10.11;85.91;99084.55;106129;1271;22547;-63
2022/04/06 08:19:35;;;;;;;8.50;2.50;;;;;;;10.13;85.46;99083.65;105839;1270;24346;-66
2022/04/06 08:22:07;;;;;;;8.80;2.70;;;;;;;10.15;85.21;99079.45;106117;1270;22727;-63
2022/04/06 08:24:39;;;;;;;8.20;2.40;;;;;;;10.18;84.85;99084.27;105958;1270;22554;-63
2022/04/06 08:27:10;;;;;;;5.30;1.70;;;;;;;10.21;84.68;99084.44;106037;1270;22528;-62
2022/04/06 08:29:42;;;;;;;8.60;2.10;;;;;;;10.25;84.26;99082.05;105921;1270;22556;-62
2022/04/06 08:32:14;;;;;;;6.60;1.70;;;;;;;10.28;84.03;99084.19;105987;1270;22529;-62
2022/04/06 08:34:45;;;;;;;5.60;1.70;;;;;;;10.31;83.64;99083.89;106156;1270;24302;-64
2022/04/06 08:37:17;;;;;;;8.00;2.20;;;;;;;10.34;83.70;99087.75;105978;1270;22590;-64
2022/04/06 08:39:50;;;;;;;7.50;2.10;;;;;;;10.37;84.02;99085.11;106002;1270;24390;-64
2022/04/06 08:42:21;;;;;;;8.50;2.00;;;;;;;10.38;83.75;99085.06;105964;1271;22554;-63
2022/04/06 08:44:53;;;;;;;9.00;2.20;;;;;;;10.40;83.67;99085.47;105837;1270;24262;-63
2022/04/06 08:47:25;;;;;;;6.80;2.20;;;;;;;10.43;83.47;99092.47;105987;1271;24315;-63
2022/04/06 08:49:57;;;;;;;6.80;1.80;;;;;;;10.46;83.49;99094.98;105905;1270;22547;-63
2022/04/06 08:52:29;;;;;;;9.30;2.40;;;;;;;10.46;82.58;99095.17;105937;1270;22566;-64
2022/04/06 08:55:01;;;;;;;11.60;2.20;;;;;;;10.48;82.06;99097.40;106200;1271;23438;-64
2022/04/06 08:57:33;;;;;;;8.90;2.10;;;;;;;10.50;82.27;99095.42;105916;1270;24236;-64
2022/04/06 09:00:05;;;;;;;7.50;1.60;;;;;;;10.51;82.40;99097.16;105978;1270;24305;-64
2022/04/06 09:02:36;;;;;;;6.30;2.10;;;;;;;10.53;82.23;99096.20;106135;1269;25545;-64
2022/04/06 09:05:11;;;;;;;5.70;1.70;;;;;;;10.55;81.98;99099.73;105930;1270;22664;-64
2022/04/06 09:07:43;;;;;;;7.90;1.60;;;;;;;10.57;81.71;99099.85;106004;1270;22526;-64
2022/04/06 09:10:15;;;;;;;5.60;1.60;;;;;;;10.57;81.68;99104.67;106025;1271;23007;-64
2022/04/06 09:12:50;;;;;;;6.30;1.90;;;;;;;10.58;82.34;99100.00;106206;1271;22690;-63
2022/04/06 09:15:26;;;;;;;7.00;2.20;;;;;;;10.61;82.16;99098.33;106197;1271;25459;-63
2022/04/06 09:18:01;;;;;;;10.40;2.70;;;;;;;10.64;81.51;99100.30;106019;1271;23398;-63
2022/04/06 09:20:33;;;;;;;9.30;2.10;;;;;;;10.68;81.52;99096.45;105986;1271;24377;-63
2022/04/06 09:23:06;;;;;;;8.20;2.30;;;;;;;10.72;81.27;99094.27;105974;1270;22544;-64
2022/04/06 09:25:40;;;;;;;7.20;2.00;;;;;;;10.76;81.36;99089.48;106087;1271;25484;-63
2022/04/06 09:28:19;;;;;;;6.40;1.90;;;;;;;10.81;81.05;99080.33;105930;1271;22843;-63
2022/04/06 09:30:54;;;;;;;7.70;1.90;;;;;;;10.85;81.03;99081.42;106089;1270;25515;-63
2022/04/06 09:33:28;;;;;;;7.30;2.10;;;;;;;10.88;80.93;99081.52;102059;1270;5430391;-65
2022/04/06 09:36:00;;;;;;;7.50;2.00;;;;;;;10.92;80.91;99079.95;106197;1270;22560;-65
2022/04/06 09:38:32;;;;;;;7.90;2.00;;;;;;;10.96;80.65;99080.80;105939;1271;22513;-64
2022/04/06 09:41:06;;;;;;;11.20;1.90;;;;;;;10.98;80.80;99076.29;106063;1271;25321;-64
2022/04/06 09:43:37;;;;;;;7.50;2.00;;;;;;;11.01;80.67;99080.39;106109;1271;22550;-65
2022/04/06 09:49:14;;;;;;;12.30;3.30;;;;;;;10.97;81.39;99074.96;105765;1270;22600;-64
2022/04/06 09:51:48;;;;;;;9.70;3.00;;;;;;;10.92;81.42;99077.05;106274;1270;25346;-64
2022/04/06 09:54:21;;;;;;;11.30;2.70;;;;;;;10.87;81.38;99070.67;106301;1271;25245;-64
2022/04/06 09:56:55;;;;;;;11.40;3.00;;;;;;;10.84;81.19;99069.20;105929;1270;22564;-64
2022/04/06 09:59:27;;;;;;;10.60;3.20;;;;;;;10.82;80.96;99068.38;106080;1271;22526;-63
2022/04/06 10:02:01;;;;;;;12.10;3.40;;;;;;;10.81;80.66;99069.74;106002;1269;22690;-64
2022/04/06 10:04:34;;;;;;;9.70;2.70;;;;;;;10.81;80.83;99072.29;105997;1271;23832;-66
2022/04/06 10:07:06;;;;;;;8.50;2.70;;;;;;;10.82;80.66;99066.90;106258;1271;22528;-64
2022/04/06 10:09:39;;;;;;;13.20;3.60;;;;;;;10.82;80.70;99071.63;106121;1270;22547;-64
2022/04/06 10:12:11;;;;;;;9.80;3.00;;;;;;;10.83;80.72;99071.13;106150;1270;22540;-64
2022/04/06 10:14:43;;;;;;;13.10;3.20;;;;;;;10.83;80.48;99070.06;106073;1271;24344;-63
2022/04/06 10:17:16;;;;;;;12.30;4.30;;;;;;;10.84;80.53;99068.02;106145;1271;22580;-64
2022/04/06 10:19:52;;;;;;;14.20;4.30;;;;;;;10.84;80.63;99065.48;105976;1271;25323;-64
2022/04/06 10:22:38;;;;;;;12.00;3.70;;;;;;;10.81;80.95;99063.96;106188;1270;22544;-64
2022/04/06 10:25:15;;;;;;;11.30;3.60;;;;;;;10.81;80.97;99067.61;106063;1270;24366;-65
2022/04/06 10:27:53;;;;;;;14.00;3.90;;;;;;;10.80;80.97;99064.73;106170;1270;22537;-64
2022/04/06 10:30:28;;;;;;;9.10;3.40;;;;;;;10.80;81.05;99061.23;106191;1271;24286;-64
2022/04/06 10:32:59;;;;;;;9.30;2.60;;;;;;;10.81;80.75;99063.56;106181;1270;22632;-65
2022/04/06 10:35:34;;;;;;;7.00;1.70;;;;;;;10.85;80.26;99062.09;106083;1271;22551;-65
2022/04/06 10:38:20;;;;;;;3.40;1.20;;;;;;;10.96;80.16;99064.52;106076;1270;22529;-64
2022/04/06 10:41:07;;;;;;;4.90;1.50;;;;;;;11.12;79.22;99066.81;106350;1270;24238;-64
2022/04/06 10:43:55;;;;;;;6.50;1.50;;;;;;;11.28;78.94;99061.80;105972;1270;22554;-66
2022/04/06 10:46:38;;;;;;;5.00;1.60;;;;;;;11.42;79.16;99063.80;106025;1270;23273;-64
2022/04/06 10:49:16;;;;;;;7.60;1.20;;;;;;;11.56;79.05;99060.59;106023;1270;25382;-63
2022/04/06 10:51:56;;;;;;;6.90;1.40;;;;;;;11.70;78.81;99058.83;106069;1271;22705;-64
2022/04/06 10:54:43;;;;;;;5.80;1.30;;;;;;;11.80;78.63;99056.51;105821;1270;23763;-64
2022/04/06 10:57:15;;;;;;;6.00;1.60;;;;;;;11.87;78.33;99046.70;106146;1271;22653;-65
2022/04/06 11:00:06;;;;;;;6.30;1.80;;;;;;;11.94;78.12;99042.59;105849;1271;26124;-64
2022/04/06 11:02:51;;;;;;;6.00;1.50;;;;;;;12.01;77.95;99044.23;105898;1271;25522;-65
2022/04/06 11:05:49;;;;;;;3.60;1.20;;;;;;;12.08;76.23;99044.34;105991;1270;22558;-65
2022/04/06 11:11:46;;;;;;;3.80;1.00;;;;;;;12.21;75.12;99045.54;105697;1270;24455;-64
2022/04/06 11:14:31;;;;;;;5.90;1.40;;;;;;;12.26;75.47;99046.46;106216;1270;23061;-64
2022/04/06 11:17:02;;;;;;;5.30;1.30;;;;;;;12.36;76.43;99043.33;106028;1270;22623;-64
2022/04/06 11:19:34;;;;;;;5.50;1.30;;;;;;;12.49;76.11;99043.09;105933;1270;22526;-64
2022/04/06 11:22:06;;;;;;;6.50;1.70;;;;;;;12.60;75.84;99036.48;106399;1271;22464;-65
2022/04/06 11:24:39;;;;;;;5.50;1.40;;;;;;;12.70;75.79;99033.13;106287;1271;25411;-64
2022/04/06 11:27:25;;;;;;;5.90;1.50;;;;;;;12.81;75.02;99037.20;106076;1271;25652;-64
2022/04/06 11:30:04;;;;;;;5.30;1.70;;;;;;;12.91;74.82;99031.46;105962;1270;22700;-64
2022/04/06 11:32:36;;;;;;;7.00;2.00;;;;;;;12.94;73.09;99029.44;106130;1271;22742;-65
2022/04/06 11:35:10;;;;;;;7.40;2.30;;;;;;;12.92;72.55;99030.27;106011;1270;22732;-64
2022/04/06 11:37:46;;;;;;;11.80;2.10;;;;;;;12.91;73.11;99027.40;105995;1270;23951;-64
2022/04/06 11:40:19;;;;;;;6.30;2.00;;;;;;;12.90;73.16;99032.09;106105;1270;22885;-64
2022/04/06 11:43:05;;;;;;;7.80;2.50;;;;;;;12.88;72.25;99027.92;106158;1270;24434;-64
2022/04/06 11:45:40;;;;;;;7.80;2.60;;;;;;;12.87;72.77;99023.23;106171;1271;22547;-64
2022/04/06 11:48:12;;;;;;;6.50;2.30;;;;;;;12.90;73.24;99020.02;106257;1271;22787;-64
2022/04/06 11:50:45;;;;;;;7.90;2.70;;;;;;;12.92;72.00;99019.58;106148;1271;22562;-64
2022/04/06 11:53:18;;;;;;;6.30;2.00;;;;;;;12.95;72.33;99020.73;106025;1270;24373;-65
2022/04/06 11:55:51;;;;;;;7.20;1.60;;;;;;;12.98;71.30;99019.83;106028;1270;24288;-65
2022/04/06 11:58:36;;;;;;;6.00;1.70;;;;;;;12.97;70.63;99020.40;106033;1271;23014;-65